Time;durP1;ratioP1;P1;durP2;ratioP2;P2;SDS_P1;SDS_P2;PMS_P1;PMS_P2;Temp;Humidity;BMP_temperature;BMP_pressure;BME280_temperature;BME280_humidity;BME280_pressure;Samples;Min_cycle;Max_cycle;Signal;HPM_P1;HPM_P2
2023/10/02 00:04:51;;;;;;;19.45;9.75;;;;;16.20;101523.00;;;;10454969;28;20323;-81
2023/10/02 00:09:53;;;;;;;21.70;11.25;;;;;16.10;101526.00;;;;10441038;28;20213;-80
2023/10/02 00:14:55;;;;;;;15.60;9.00;;;;;16.10;101517.00;;;;10437524;28;20213;-80
2023/10/02 00:20:05;;;;;;;23.23;10.65;;;;;16.00;101516.00;;;;10429598;28;20193;-80
2023/10/02 00:25:19;;;;;;;19.98;9.77;;;;;16.00;101519.00;;;;10438598;28;20212;-80
2023/10/02 00:30:23;;;;;;;22.70;10.40;;;;;16.00;101517.00;;;;10430424;28;20222;-80
2023/10/02 00:35:27;;;;;;;21.85;10.82;;;;;16.10;101516.00;;;;10421514;28;20206;-80
2023/10/02 00:40:30;;;;;;;22.23;11.07;;;;;16.20;101519.00;;;;10418635;28;20679;-81
2023/10/02 00:45:38;;;;;;;18.42;9.95;;;;;16.20;101518.00;;;;10425033;28;20251;-82
2023/10/02 00:50:49;;;;;;;19.25;10.00;;;;;16.20;101514.00;;;;10427047;28;20308;-82
2023/10/02 00:55:51;;;;;;;20.23;10.20;;;;;16.20;101512.00;;;;10448727;28;20247;-82
2023/10/02 01:00:53;;;;;;;16.10;9.75;;;;;16.20;101507.00;;;;10452573;28;20231;-88
2023/10/02 01:05:58;;;;;;;17.35;9.48;;;;;16.20;101511.00;;;;10439682;28;20200;-86
2023/10/02 01:11:03;;;;;;;17.17;9.60;;;;;16.10;101508.00;;;;10433030;28;20240;-85
2023/10/02 01:16:09;;;;;;;20.52;9.15;;;;;16.10;101507.00;;;;10428051;28;20805;-86
2023/10/02 01:21:14;;;;;;;23.13;9.80;;;;;16.10;101495.00;;;;10457936;28;20202;-85
2023/10/02 01:26:18;;;;;;;20.40;9.35;;;;;16.00;101490.00;;;;10427229;28;20343;-85
2023/10/02 01:31:35;;;;;;;20.80;9.40;;;;;16.00;101490.00;;;;10457713;28;20222;-86
2023/10/02 01:36:41;;;;;;;16.48;9.55;;;;;16.10;101480.00;;;;10455721;28;20238;-86
2023/10/02 01:41:52;;;;;;;18.38;9.65;;;;;16.00;101489.00;;;;10431201;28;20201;-86
2023/10/02 01:46:53;;;;;;;15.60;8.80;;;;;16.00;101483.00;;;;10440879;28;20213;-86
2023/10/02 01:52:01;;;;;;;19.52;9.98;;;;;16.00;101477.00;;;;10439282;28;20275;-88
2023/10/02 01:57:04;;;;;;;21.33;9.90;;;;;16.00;101476.00;;;;10463842;28;20195;-88
2023/10/02 02:02:12;;;;;;;20.55;10.30;;;;;16.00;101474.00;;;;10448354;28;20210;-86
2023/10/02 02:07:15;;;;;;;17.73;10.50;;;;;16.00;101473.00;;;;10439196;28;20209;-86
2023/10/02 02:12:18;;;;;;;23.67;9.88;;;;;16.00;101481.00;;;;10422470;28;20222;-82
2023/10/02 02:17:22;;;;;;;21.50;10.25;;;;;16.00;101477.00;;;;10454261;28;20212;-81
2023/10/02 02:22:31;;;;;;;20.15;10.15;;;;;16.00;101486.00;;;;10442247;28;20260;-81
2023/10/02 02:27:32;;;;;;;18.48;9.82;;;;;16.00;101473.00;;;;10446822;28;20297;-81
2023/10/02 02:32:54;;;;;;;21.13;9.68;;;;;15.90;101473.00;;;;10440616;28;20802;-82
2023/10/02 02:37:56;;;;;;;21.45;9.60;;;;;15.90;101471.00;;;;10447064;28;20861;-81
2023/10/02 02:42:58;;;;;;;17.80;9.65;;;;;15.90;101460.00;;;;10444709;28;20225;-82
2023/10/02 02:48:10;;;;;;;20.73;10.27;;;;;15.80;101452.00;;;;10436204;28;20304;-82
2023/10/02 02:53:31;;;;;;;18.73;9.52;;;;;15.80;101454.00;;;;10460230;28;20220;-81
2023/10/02 02:58:34;;;;;;;20.10;10.00;;;;;15.80;101455.00;;;;10413164;28;20244;-82
2023/10/02 03:03:41;;;;;;;23.10;10.43;;;;;15.70;101451.00;;;;10436160;28;20202;-82
2023/10/02 03:08:44;;;;;;;23.05;10.52;;;;;15.70;101454.00;;;;10423945;28;20236;-81
2023/10/02 03:13:47;;;;;;;19.70;9.85;;;;;15.50;101451.00;;;;10461301;28;20619;-82
2023/10/02 03:18:49;;;;;;;19.58;10.30;;;;;15.50;101451.00;;;;10448505;28;20654;-82
2023/10/02 03:23:58;;;;;;;19.35;10.60;;;;;15.40;101449.00;;;;10440904;28;20220;-80
2023/10/02 03:29:16;;;;;;;20.58;10.27;;;;;15.30;101447.00;;;;10466260;28;20232;-79
2023/10/02 03:34:28;;;;;;;19.30;10.23;;;;;15.20;101443.00;;;;10446675;28;20647;-80
2023/10/02 03:39:52;;;;;;;20.65;10.13;;;;;15.10;101448.00;;;;10442962;28;20214;-80
2023/10/02 03:44:56;;;;;;;21.00;10.52;;;;;15.10;101445.00;;;;10453515;28;20630;-80
2023/10/02 03:50:00;;;;;;;24.17;10.27;;;;;15.00;101441.00;;;;10430230;28;20583;-79
2023/10/02 03:55:16;;;;;;;21.00;10.13;;;;;14.90;101442.00;;;;10445002;28;20209;-81
2023/10/02 04:00:18;;;;;;;20.63;10.10;;;;;14.90;101435.00;;;;10438174;28;21954;-80
2023/10/02 04:05:32;;;;;;;20.63;10.63;;;;;15.00;101446.00;;;;10439655;28;20205;-80
2023/10/02 04:10:51;;;;;;;18.30;10.40;;;;;15.00;101443.00;;;;10433062;28;20671;-80
2023/10/02 04:21:14;;;;;;;22.40;10.77;;;;;15.00;101432.00;;;;10460915;28;20342;-80
2023/10/02 04:26:19;;;;;;;21.58;11.00;;;;;15.00;101428.00;;;;10437867;28;20202;-81
2023/10/02 04:31:34;;;;;;;23.90;11.23;;;;;15.00;101429.00;;;;10444020;28;20352;-81
2023/10/02 04:36:40;;;;;;;22.45;11.38;;;;;15.00;101433.00;;;;10408968;28;20217;-81
2023/10/02 04:42:09;;;;;;;22.35;11.35;;;;;15.00;101435.00;;;;10411261;28;20217;-81
2023/10/02 04:47:02;;;;;;;28.10;11.40;;;;;15.00;101422.00;;;;10438880;28;20537;-81
2023/10/02 04:52:04;;;;;;;21.17;11.27;;;;;14.90;101429.00;;;;10424782;28;21040;-80
2023/10/02 04:57:14;;;;;;;20.83;11.10;;;;;14.90;101432.00;;;;10427086;28;20205;-81
2023/10/02 05:02:21;;;;;;;23.73;12.88;;;;;15.00;101425.00;;;;10441574;28;20201;-80
2023/10/02 05:07:22;;;;;;;21.48;10.63;;;;;15.00;101428.00;;;;10444657;28;20213;-81
2023/10/02 05:12:23;;;;;;;24.67;11.57;;;;;14.90;101421.00;;;;10423996;28;20218;-80
2023/10/02 05:17:46;;;;;;;22.38;11.55;;;;;14.90;101426.00;;;;10443004;28;20209;-79
2023/10/02 05:22:58;;;;;;;25.40;11.60;;;;;14.80;101429.00;;;;10423603;28;20202;-81
2023/10/02 05:28:01;;;;;;;23.27;11.95;;;;;14.90;101423.00;;;;10448454;28;20254;-79
2023/10/02 05:33:07;;;;;;;26.50;14.18;;;;;14.90;101429.00;;;;10433040;28;20248;-80
2023/10/02 05:38:08;;;;;;;25.20;12.63;;;;;14.90;101433.00;;;;10438215;28;20205;-81
2023/10/02 05:43:09;;;;;;;29.02;13.23;;;;;15.00;101438.00;;;;10449728;28;20203;-89
2023/10/02 05:48:15;;;;;;;27.45;12.88;;;;;15.00;101438.00;;;;10495883;28;20209;-84
2023/10/02 05:53:18;;;;;;;27.00;11.90;;;;;15.00;101452.00;;;;10458882;28;20214;-86
2023/10/02 05:58:32;;;;;;;23.70;12.30;;;;;15.10;101451.00;;;;10443662;28;20231;-88
2023/10/02 06:03:34;;;;;;;27.20;13.32;;;;;15.20;101447.00;;;;10456358;28;20289;-86
2023/10/02 06:08:40;;;;;;;23.27;12.93;;;;;15.30;101451.00;;;;10443753;28;20748;-88
2023/10/02 06:13:44;;;;;;;26.05;12.98;;;;;15.50;101441.00;;;;10455627;28;20232;-87
2023/10/02 06:18:46;;;;;;;22.95;12.35;;;;;15.60;101442.00;;;;10429247;28;20294;-86
2023/10/02 06:23:47;;;;;;;24.33;11.88;;;;;15.70;101449.00;;;;10458412;28;20198;-85
2023/10/02 06:29:13;;;;;;;26.05;12.07;;;;;16.00;101442.00;;;;10448907;28;20255;-85
2023/10/02 06:34:11;;;;;;;21.35;11.45;;;;;16.20;101449.00;;;;10454909;28;20233;-87
2023/10/02 06:39:21;;;;;;;24.02;11.60;;;;;16.60;101449.00;;;;10461664;28;20210;-88
2023/10/02 06:44:22;;;;;;;24.77;12.60;;;;;16.90;101449.00;;;;10427669;28;20680;-88
2023/10/02 06:49:23;;;;;;;24.15;12.77;;;;;17.10;101451.00;;;;10447038;28;20214;-77
2023/10/02 06:54:24;;;;;;;26.70;12.52;;;;;17.50;101448.00;;;;10445139;28;20305;-78
2023/10/02 06:59:26;;;;;;;22.80;12.18;;;;;17.70;101457.00;;;;10450125;28;20202;-80
2023/10/02 07:04:29;;;;;;;27.38;12.88;;;;;18.10;101450.00;;;;10449803;28;20300;-79
2023/10/02 07:09:34;;;;;;;26.20;12.73;;;;;18.50;101461.00;;;;10432437;28;20222;-82
2023/10/02 07:14:36;;;;;;;21.38;11.82;;;;;18.70;101458.00;;;;10460848;28;20209;-78
2023/10/02 07:19:46;;;;;;;24.67;12.40;;;;;18.80;101460.00;;;;10435560;28;20735;-79
2023/10/02 07:24:48;;;;;;;24.45;12.90;;;;;19.00;101455.00;;;;10414765;28;20218;-77
2023/10/02 07:29:52;;;;;;;25.17;12.30;;;;;19.10;101455.00;;;;10441109;28;20210;-77
2023/10/02 07:34:55;;;;;;;23.17;12.27;;;;;19.20;101461.00;;;;10457826;28;20663;-76
2023/10/02 07:39:56;;;;;;;24.45;12.80;;;;;19.50;101453.00;;;;10457328;28;20891;-77
2023/10/02 07:45:44;;;;;;;22.95;12.35;;;;;19.50;101456.00;;;;10441501;28;20205;-78
2023/10/02 07:50:24;;;;;;;21.92;12.10;;;;;19.60;101449.00;;;;10435636;28;20217;-78
2023/10/02 07:55:25;;;;;;;26.50;12.27;;;;;19.70;101454.00;;;;10443791;28;20219;-77
2023/10/02 08:00:37;;;;;;;22.48;11.68;;;;;20.10;101434.00;;;;10430502;28;20230;-81
2023/10/02 08:05:39;;;;;;;21.95;12.15;;;;;20.40;101440.00;;;;10430883;28;20259;-81
2023/10/02 08:10:53;;;;;;;23.38;12.25;;;;;20.90;101441.00;;;;10446430;28;20249;-81
2023/10/02 08:15:55;;;;;;;23.58;11.93;;;;;21.40;101451.00;;;;10443860;28;20190;-80
2023/10/02 08:20:58;;;;;;;22.67;12.38;;;;;21.90;101453.00;;;;10449545;28;20199;-81
2023/10/02 08:26:02;;;;;;;24.63;13.85;;;;;22.40;101457.00;;;;10451063;28;20202;-81
2023/10/02 08:31:27;;;;;;;23.90;13.32;;;;;23.00;101449.00;;;;10445099;28;20222;-81
2023/10/02 08:36:29;;;;;;;23.25;12.70;;;;;23.40;101451.00;;;;10440032;28;20208;-80
2023/10/02 08:41:30;;;;;;;23.63;12.95;;;;;23.70;101453.00;;;;10433871;28;20213;-81
2023/10/02 08:46:31;;;;;;;24.02;12.93;;;;;23.70;101455.00;;;;10433925;28;20205;-81
2023/10/02 08:51:35;;;;;;;21.45;12.48;;;;;24.00;101461.00;;;;10449338;28;20248;-81
2023/10/02 08:56:48;;;;;;;23.88;13.07;;;;;24.40;101447.00;;;;10448126;28;20248;-81
2023/10/02 09:01:50;;;;;;;24.52;12.57;;;;;24.40;101443.00;;;;10433937;28;20564;-80
2023/10/02 09:06:58;;;;;;;20.58;11.73;;;;;24.00;101451.00;;;;10455494;28;20222;-80
2023/10/02 09:11:59;;;;;;;24.27;13.93;;;;;24.10;101444.00;;;;10416257;28;20217;-83
2023/10/02 09:17:20;;;;;;;21.13;12.85;;;;;24.50;101432.00;;;;10444341;28;20194;-84
2023/10/02 09:22:23;;;;;;;21.17;12.20;;;;;25.10;101441.00;;;;10407379;28;20214;-84
2023/10/02 09:27:38;;;;;;;20.42;12.73;;;;;25.90;101439.00;;;;10461623;28;20210;-82
2023/10/02 09:32:47;;;;;;;24.67;13.50;;;;;25.90;101436.00;;;;10450009;28;20304;-83
2023/10/02 09:37:55;;;;;;;21.45;12.27;;;;;26.50;101431.00;;;;10477690;28;20277;-82
2023/10/02 09:43:11;;;;;;;24.73;14.60;;;;;26.90;101430.00;;;;10466128;28;20775;-83
2023/10/02 09:53:41;;;;;;;23.05;13.40;;;;;26.90;101422.00;;;;10502442;28;20875;-84
2023/10/02 09:59:15;;;;;;;21.13;12.43;;;;;26.90;101422.00;;;;10486348;28;20190;-83
2023/10/02 10:04:32;;;;;;;20.70;12.68;;;;;27.00;101411.00;;;;10478554;28;20212;-83
2023/10/02 10:09:51;;;;;;;23.27;12.98;;;;;26.90;101419.00;;;;10469331;28;20229;-82
2023/10/02 10:15:25;;;;;;;23.67;12.77;;;;;27.10;101415.00;;;;10468765;28;20543;-83
2023/10/02 10:20:28;;;;;;;23.50;13.82;;;;;27.50;101414.00;;;;10500459;28;20196;-80
2023/10/02 10:25:42;;;;;;;24.15;14.02;;;;;27.80;101411.00;;;;10479051;28;20213;-80
2023/10/02 10:30:50;;;;;;;25.42;14.02;;;;;28.00;101404.00;;;;10502881;28;20399;-80
2023/10/02 10:35:52;;;;;;;25.75;13.75;;;;;28.30;101403.00;;;;10468548;28;21056;-79
2023/10/02 10:41:00;;;;;;;22.13;12.70;;;;;29.10;101406.00;;;;10485776;28;20240;-80
2023/10/02 10:46:12;;;;;;;23.33;13.85;;;;;29.00;101392.00;;;;10488711;28;20749;-80
2023/10/02 10:51:22;;;;;;;22.90;13.43;;;;;28.80;101388.00;;;;10484743;28;20217;-80
2023/10/02 10:56:24;;;;;;;23.45;14.55;;;;;29.00;101394.00;;;;10515826;28;20197;-80
2023/10/02 11:01:25;;;;;;;27.55;14.23;;;;;28.90;101387.00;;;;10458660;28;20819;-80
2023/10/02 11:06:28;;;;;;;21.13;13.45;;;;;28.90;101386.00;;;;10512458;28;20205;-79
2023/10/02 11:11:48;;;;;;;25.40;14.07;;;;;28.90;101381.00;;;;10509781;28;20750;-80
2023/10/02 11:16:57;;;;;;;23.33;13.55;;;;;29.00;101382.00;;;;10501177;28;20193;-80
2023/10/02 11:22:14;;;;;;;21.33;13.13;;;;;29.00;101367.00;;;;10483659;28;20288;-80
2023/10/02 11:27:16;;;;;;;21.08;13.50;;;;;29.50;101366.00;;;;10508164;28;20200;-79
2023/10/02 11:32:23;;;;;;;20.92;12.82;;;;;29.70;101356.00;;;;10495471;28;20225;-79
2023/10/02 11:37:26;;;;;;;22.40;13.70;;;;;30.10;101344.00;;;;10506966;28;20208;-79
2023/10/02 11:42:27;;;;;;;20.33;13.63;;;;;30.20;101355.00;;;;10494010;28;20888;-77
2023/10/02 11:47:29;;;;;;;22.23;14.40;;;;;29.70;101348.00;;;;10510139;28;20201;-79
2023/10/02 11:52:31;;;;;;;21.23;13.20;;;;;29.40;101343.00;;;;10497733;28;22195;-78
2023/10/02 11:57:33;;;;;;;23.27;13.93;;;;;29.50;101337.00;;;;10500528;28;20197;-79
2023/10/02 12:02:35;;;;;;;21.17;14.73;;;;;29.60;101331.00;;;;10495461;28;20190;-79
2023/10/02 12:07:36;;;;;;;21.92;12.95;;;;;29.60;101318.00;;;;10510018;28;20244;-76
2023/10/02 12:12:37;;;;;;;24.23;13.50;;;;;29.60;101316.00;;;;10493228;28;20227;-78
2023/10/02 12:17:39;;;;;;;26.05;14.48;;;;;30.00;101320.00;;;;10513272;28;20213;-78
2023/10/02 12:22:40;;;;;;;21.75;14.95;;;;;30.40;101312.00;;;;10507235;28;20763;-77
2023/10/02 12:27:41;;;;;;;26.45;15.57;;;;;30.10;101306.00;;;;10511300;28;20197;-78
2023/10/02 12:32:43;;;;;;;23.70;14.45;;;;;29.80;101291.00;;;;10507672;28;20225;-80
2023/10/02 12:37:44;;;;;;;23.17;14.30;;;;;29.30;101277.00;;;;10509426;28;20200;-78
2023/10/02 12:42:46;;;;;;;24.08;14.15;;;;;28.90;101280.00;;;;10492124;28;20682;-87
2023/10/02 12:47:47;;;;;;;24.67;14.95;;;;;28.80;101279.00;;;;10489964;28;20192;-86
2023/10/02 12:52:48;;;;;;;25.60;15.48;;;;;29.00;101270.00;;;;10518902;28;20220;-85
2023/10/02 12:57:49;;;;;;;26.42;14.38;;;;;29.10;101271.00;;;;10506913;28;20193;-86
2023/10/02 13:02:51;;;;;;;26.42;13.57;;;;;29.00;101256.00;;;;10513092;28;20198;-85
2023/10/02 13:07:55;;;;;;;20.95;12.43;;;;;29.00;101258.00;;;;10487735;28;20203;-85
2023/10/02 13:12:57;;;;;;;22.90;13.48;;;;;28.90;101255.00;;;;10487298;28;20205;-86
2023/10/02 13:17:59;;;;;;;23.80;14.18;;;;;28.80;101245.00;;;;10477719;28;20197;-86
2023/10/02 13:23:02;;;;;;;22.35;14.35;;;;;28.60;101241.00;;;;10495546;28;20200;-86
2023/10/02 13:28:03;;;;;;;27.00;14.85;;;;;28.70;101239.00;;;;10492944;28;20212;-86
2023/10/02 13:33:05;;;;;;;24.20;14.32;;;;;28.70;101234.00;;;;10500612;28;20208;-87
2023/10/02 13:38:07;;;;;;;25.20;14.70;;;;;28.80;101240.00;;;;10470544;28;20639;-87
2023/10/02 13:43:08;;;;;;;25.15;13.68;;;;;28.30;101231.00;;;;10495503;28;20287;-84
2023/10/02 13:48:09;;;;;;;23.25;14.57;;;;;28.10;101213.00;;;;10506932;28;20205;-84
2023/10/02 13:53:10;;;;;;;26.55;14.93;;;;;28.30;101203.00;;;;10510960;28;20227;-77
2023/10/02 13:58:12;;;;;;;25.67;14.55;;;;;28.30;101199.00;;;;10511021;28;20196;-79
2023/10/02 14:03:15;;;;;;;23.92;14.85;;;;;29.00;101179.00;;;;10494335;28;20204;-76
2023/10/02 14:08:16;;;;;;;29.35;14.35;;;;;28.10;101186.00;;;;10477712;28;20201;-77
2023/10/02 14:13:17;;;;;;;25.48;16.02;;;;;27.70;101182.00;;;;10493732;28;20303;-78
2023/10/02 14:18:18;;;;;;;28.45;15.07;;;;;27.40;101166.00;;;;10500523;28;20197;-77
2023/10/02 14:23:19;;;;;;;26.45;14.73;;;;;27.20;101167.00;;;;10483744;28;20338;-77
2023/10/02 14:28:23;;;;;;;26.80;15.52;;;;;26.90;101163.00;;;;10516643;28;20217;-76
2023/10/02 14:33:24;;;;;;;27.17;15.48;;;;;26.50;101153.00;;;;10504084;28;20271;-79
2023/10/02 14:38:25;;;;;;;29.08;15.77;;;;;26.50;101139.00;;;;10518789;28;20215;-78
2023/10/02 14:43:27;;;;;;;30.38;16.98;;;;;26.80;101142.00;;;;10495875;28;20221;-76
2023/10/02 14:48:28;;;;;;;28.67;16.55;;;;;26.70;101136.00;;;;10503705;28;20977;-79
2023/10/02 14:53:47;;;;;;;27.15;15.60;;;;;26.40;101128.00;;;;10438901;28;1461302;-77
2023/10/02 14:58:50;;;;;;;26.58;15.82;;;;;26.20;101130.00;;;;10535220;28;20220;-80
2023/10/02 15:03:52;;;;;;;32.58;17.15;;;;;26.00;101139.00;;;;10528609;28;20650;-84
2023/10/02 15:09:02;;;;;;;33.25;18.88;;;;;25.90;101124.00;;;;10513960;28;20611;-83
2023/10/02 15:14:08;;;;;;;35.42;20.33;;;;;25.80;101106.00;;;;10545088;28;20219;-83
2023/10/02 15:19:12;;;;;;;37.47;20.73;;;;;25.70;101091.00;;;;10532562;28;20199;-83
2023/10/02 15:24:14;;;;;;;37.85;21.15;;;;;25.50;101091.00;;;;10531469;28;20196;-83
2023/10/02 15:29:16;;;;;;;37.65;21.10;;;;;25.30;101081.00;;;;10549200;28;20192;-83
2023/10/02 15:34:19;;;;;;;38.60;21.05;;;;;25.20;101081.00;;;;10548640;28;20197;-84
2023/10/02 15:39:22;;;;;;;38.72;21.40;;;;;25.00;101078.00;;;;10515426;28;20674;-84
2023/10/02 15:44:24;;;;;;;38.60;21.20;;;;;24.90;101075.00;;;;10520875;28;20677;-83
2023/10/02 15:49:26;;;;;;;37.60;20.83;;;;;24.80;101069.00;;;;10528545;28;20264;-82
2023/10/02 15:54:29;;;;;;;36.20;20.60;;;;;24.60;101066.00;;;;10527254;27;20657;-83
2023/10/02 15:59:32;;;;;;;41.65;21.25;;;;;24.50;101055.00;;;;10540144;27;20204;-83
2023/10/02 16:04:34;;;;;;;41.08;21.67;;;;;24.50;101044.00;;;;10535564;27;20187;-83
2023/10/02 16:09:36;;;;;;;39.25;21.50;;;;;24.40;101041.00;;;;10521538;27;20208;-78
2023/10/02 16:14:38;;;;;;;39.35;20.92;;;;;24.30;101037.00;;;;10530455;28;20203;-79
2023/10/02 16:19:40;;;;;;;37.28;21.55;;;;;24.20;101043.00;;;;10537883;28;20212;-79
2023/10/02 16:24:42;;;;;;;40.53;21.67;;;;;24.00;101040.00;;;;10520684;27;20212;-78
2023/10/02 16:29:44;;;;;;;37.60;21.30;;;;;24.00;101036.00;;;;10523268;27;20744;-79
2023/10/02 16:34:46;;;;;;;40.35;22.02;;;;;24.00;101025.00;;;;10510787;28;20215;-79
2023/10/02 16:39:48;;;;;;;36.08;20.27;;;;;23.90;101016.00;;;;10502914;28;20946;-81
2023/10/02 16:44:50;;;;;;;39.40;22.10;;;;;23.70;101013.00;;;;10526436;28;20223;-79
2023/10/02 16:49:52;;;;;;;38.78;20.80;;;;;23.40;101019.00;;;;10529849;28;20657;-79
2023/10/02 16:54:54;;;;;;;37.83;21.40;;;;;23.10;101016.00;;;;10537369;28;20247;-80
2023/10/02 16:59:57;;;;;;;39.50;21.55;;;;;22.80;101008.00;;;;10521610;28;20928;-79
2023/10/02 17:05:00;;;;;;;38.97;21.20;;;;;22.50;100997.00;;;;10513879;27;20235;-80
2023/10/02 17:10:03;;;;;;;37.13;19.20;;;;;22.40;100984.00;;;;10537755;28;20300;-80
2023/10/02 17:15:05;;;;;;;37.70;20.33;;;;;22.30;100987.00;;;;10535652;28;20188;-78
2023/10/02 17:20:09;;;;;;;35.00;18.98;;;;;22.30;100998.00;;;;10523131;27;20258;-81
2023/10/02 17:25:14;;;;;;;32.67;18.02;;;;;22.10;100994.00;;;;10519664;28;20805;-80
2023/10/02 17:30:20;;;;;;;36.28;17.65;;;;;21.90;101000.00;;;;10535408;27;20574;-81
2023/10/02 17:35:22;;;;;;;36.20;18.60;;;;;21.70;100997.00;;;;10519521;28;20298;-80
2023/10/02 17:40:25;;;;;;;34.83;17.40;;;;;21.50;101007.00;;;;10517676;28;20210;-79
2023/10/02 17:45:26;;;;;;;29.00;15.68;;;;;21.30;101000.00;;;;10533200;28;20212;-80
2023/10/02 17:50:28;;;;;;;29.67;15.70;;;;;21.20;100996.00;;;;10516297;28;20269;-80
2023/10/02 17:55:30;;;;;;;27.10;15.10;;;;;21.00;101006.00;;;;10534744;28;20239;-82
2023/10/02 18:00:35;;;;;;;26.70;14.70;;;;;20.90;101001.00;;;;10532700;28;20209;-79
2023/10/02 18:05:37;;;;;;;30.33;16.67;;;;;20.90;100985.00;;;;10536076;28;20566;-80
2023/10/02 18:10:39;;;;;;;25.50;15.13;;;;;21.00;100981.00;;;;10512886;28;20858;-81
2023/10/02 18:15:44;;;;;;;31.17;15.77;;;;;21.10;100974.00;;;;10517328;28;20266;-79
2023/10/02 18:20:46;;;;;;;30.30;15.45;;;;;21.10;100969.00;;;;10526737;28;20204;-80
2023/10/02 18:25:50;;;;;;;25.63;13.25;;;;;21.00;100969.00;;;;10531785;28;20215;-79
2023/10/02 18:30:54;;;;;;;28.50;14.43;;;;;20.90;100960.00;;;;10527699;28;20219;-80
2023/10/02 18:36:02;;;;;;;27.10;12.85;;;;;20.80;100957.00;;;;10524105;28;20208;-80
2023/10/02 18:41:08;;;;;;;23.80;13.75;;;;;20.70;100953.00;;;;10513384;28;20945;-81
2023/10/02 18:46:10;;;;;;;27.42;13.85;;;;;20.70;100957.00;;;;10494260;28;20224;-80
2023/10/02 18:51:21;;;;;;;26.80;14.23;;;;;20.50;100960.00;;;;10544115;28;20860;-80
2023/10/02 18:56:23;;;;;;;22.10;13.13;;;;;20.30;100943.00;;;;10549981;27;20288;-81
2023/10/02 19:01:25;;;;;;;23.52;13.32;;;;;20.20;100931.00;;;;10525236;27;20213;-81
2023/10/02 19:06:30;;;;;;;24.27;13.82;;;;;20.10;100926.00;;;;10529255;28;20300;-81
2023/10/02 19:11:32;;;;;;;25.40;13.27;;;;;20.10;100901.00;;;;10513973;27;20208;-80
2023/10/02 19:16:34;;;;;;;26.95;14.23;;;;;20.10;100901.00;;;;10514770;27;20965;-81
2023/10/02 19:21:36;;;;;;;27.05;13.77;;;;;20.00;100891.00;;;;10516229;28;20870;-81
2023/10/02 19:26:38;;;;;;;25.67;14.00;;;;;19.80;100895.00;;;;10529326;27;20201;-81
2023/10/02 19:31:41;;;;;;;29.58;14.65;;;;;19.80;100890.00;;;;10512960;27;20248;-81
2023/10/02 19:36:43;;;;;;;27.27;15.02;;;;;19.80;100886.00;;;;10509063;28;20295;-81
2023/10/02 19:41:44;;;;;;;30.25;15.50;;;;;19.80;100874.00;;;;10522065;28;20214;-81
2023/10/02 19:46:48;;;;;;;34.97;16.00;;;;;19.90;100867.00;;;;10519240;28;20815;-80
2023/10/02 19:51:50;;;;;;;31.52;15.75;;;;;20.00;100869.00;;;;10537419;28;20212;-81
2023/10/02 19:56:52;;;;;;;28.95;15.30;;;;;20.00;100854.00;;;;10515487;28;20262;-80
2023/10/02 20:01:55;;;;;;;29.65;15.05;;;;;19.90;100849.00;;;;10496677;27;20221;-81
2023/10/02 20:06:59;;;;;;;31.17;16.10;;;;;19.90;100834.00;;;;10524556;27;20543;-83
2023/10/02 20:12:01;;;;;;;32.85;16.15;;;;;20.00;100820.00;;;;10542016;27;20299;-82
2023/10/02 20:17:05;;;;;;;31.80;16.38;;;;;19.90;100821.00;;;;10542697;28;20825;-82
2023/10/02 20:22:08;;;;;;;29.13;15.40;;;;;19.80;100815.00;;;;10505275;27;20304;-81
2023/10/02 20:27:10;;;;;;;34.22;16.63;;;;;19.70;100800.00;;;;10501310;28;20937;-82
2023/10/02 20:32:13;;;;;;;34.38;16.48;;;;;19.60;100794.00;;;;10465759;27;20212;-81
2023/10/02 20:37:15;;;;;;;35.13;17.42;;;;;19.60;100789.00;;;;10486433;27;21851;-81
2023/10/02 20:42:17;;;;;;;34.30;17.08;;;;;19.60;100780.00;;;;10471304;28;20781;-81
2023/10/02 20:47:19;;;;;;;36.17;18.77;;;;;19.60;100777.00;;;;10484444;28;20218;-84
2023/10/02 20:52:21;;;;;;;33.63;17.55;;;;;19.50;100780.00;;;;10507156;28;20216;-87
2023/10/02 20:57:25;;;;;;;32.92;16.63;;;;;19.50;100779.00;;;;10489997;28;20892;-84
2023/10/02 21:02:29;;;;;;;35.72;17.02;;;;;19.30;100766.00;;;;10506668;28;20239;-85
2023/10/02 21:07:31;;;;;;;37.38;18.60;;;;;19.20;100767.00;;;;10529008;28;20271;-85
2023/10/02 21:12:33;;;;;;;35.72;17.50;;;;;19.20;100762.00;;;;10477399;27;20566;-85
2023/10/02 21:17:35;;;;;;;33.83;17.30;;;;;19.20;100751.00;;;;10491895;28;20201;-84
2023/10/02 21:22:37;;;;;;;38.40;19.08;;;;;19.20;100742.00;;;;10473118;28;20918;-85
2023/10/02 21:27:40;;;;;;;35.40;18.63;;;;;19.20;100736.00;;;;10474116;28;20239;-85
2023/10/02 21:32:43;;;;;;;37.47;18.33;;;;;19.10;100731.00;;;;10471932;28;20297;-84
2023/10/02 21:37:45;;;;;;;35.05;18.33;;;;;19.00;100733.00;;;;10475248;28;20573;-85
2023/10/02 21:42:48;;;;;;;35.22;19.63;;;;;19.00;100728.00;;;;10482483;28;20208;-86
2023/10/02 21:47:50;;;;;;;36.55;19.27;;;;;19.00;100722.00;;;;10521715;28;20249;-84
2023/10/02 21:52:52;;;;;;;41.75;19.50;;;;;19.00;100701.00;;;;10532774;28;20240;-88
2023/10/02 21:57:54;;;;;;;39.20;19.98;;;;;19.10;100693.00;;;;10495702;28;20623;-87
2023/10/02 22:02:55;;;;;;;44.00;20.05;;;;;19.10;100703.00;;;;10512519;28;20204;-86
2023/10/02 22:07:58;;;;;;;40.78;19.50;;;;;19.10;100690.00;;;;10500666;28;20213;-85
2023/10/02 22:13:01;;;;;;;40.35;21.42;;;;;19.20;100687.00;;;;10516687;28;20211;-85
2023/10/02 22:18:07;;;;;;;40.67;20.45;;;;;19.30;100667.00;;;;10540400;28;20196;-86
2023/10/02 22:23:11;;;;;;;48.17;22.25;;;;;19.50;100668.00;;;;10503557;28;20816;-86
2023/10/02 22:28:14;;;;;;;42.72;20.45;;;;;19.60;100653.00;;;;10550315;28;20277;-87
2023/10/02 22:33:16;;;;;;;43.88;20.33;;;;;19.70;100657.00;;;;10513275;27;20273;-84
2023/10/02 22:38:18;;;;;;;45.97;22.10;;;;;19.80;100646.00;;;;10530072;27;20998;-86
2023/10/02 22:43:20;;;;;;;46.88;21.27;;;;;19.80;100637.00;;;;10531486;27;20224;-84
2023/10/02 22:48:23;;;;;;;40.55;20.52;;;;;19.90;100629.00;;;;10520924;28;20250;-87
2023/10/02 22:53:25;;;;;;;42.53;21.02;;;;;20.00;100628.00;;;;10528661;28;20220;-86
2023/10/02 22:58:27;;;;;;;44.10;21.77;;;;;20.00;100622.00;;;;10545115;28;20877;-87
2023/10/02 23:03:29;;;;;;;41.58;20.65;;;;;20.00;100614.00;;;;10538849;28;20210;-86
2023/10/02 23:08:33;;;;;;;42.10;20.48;;;;;20.10;100603.00;;;;10522041;28;20287;-87
2023/10/02 23:13:35;;;;;;;42.05;19.67;;;;;20.10;100594.00;;;;10521991;27;20212;-82
2023/10/02 23:18:37;;;;;;;38.42;19.90;;;;;20.20;100589.00;;;;10518635;28;20204;-79
2023/10/02 23:23:39;;;;;;;38.05;18.30;;;;;20.20;100566.00;;;;10532225;28;20203;-82
2023/10/02 23:28:41;;;;;;;37.30;18.27;;;;;20.30;100567.00;;;;10534544;27;20196;-84
2023/10/02 23:33:43;;;;;;;37.22;17.45;;;;;20.40;100562.00;;;;10547372;27;20220;-80
2023/10/02 23:38:45;;;;;;;35.85;17.67;;;;;20.50;100556.00;;;;10537629;27;20253;-83
2023/10/02 23:43:48;;;;;;;29.65;15.93;;;;;20.60;100541.00;;;;10540926;28;20205;-85
2023/10/02 23:48:55;;;;;;;33.33;16.73;;;;;20.70;100542.00;;;;10524709;28;20200;-79
2023/10/02 23:53:57;;;;;;;35.28;17.15;;;;;20.80;100526.00;;;;10521963;28;20783;-84
2023/10/02 23:59:03;;;;;;;31.25;15.52;;;;;20.80;100510.00;;;;10545833;27;20674;-82
